createdAt,value
2019-06-10T00:02:46.304Z,18.00
2019-06-10T00:07:51.624Z,18.00
2019-06-10T00:12:57.290Z,17.90
2019-06-10T00:18:24.990Z,17.80
2019-06-10T00:23:08.640Z,17.80
2019-06-10T00:28:13.483Z,17.70
2019-06-10T00:33:18.178Z,17.60
2019-06-10T00:38:22.871Z,17.60
2019-06-10T00:43:27.716Z,17.50
2019-06-10T00:48:32.591Z,17.40
2019-06-10T00:53:37.405Z,17.20
2019-06-10T00:58:42.241Z,17.10
2019-06-10T01:03:46.999Z,17.00
2019-06-10T01:08:52.000Z,16.80
2019-06-10T01:13:56.942Z,16.80
2019-06-10T01:19:03.741Z,16.80
2019-06-10T01:24:12.074Z,16.80
2019-06-10T01:29:18.176Z,16.70
2019-06-10T01:34:24.521Z,16.80
2019-06-10T01:39:31.116Z,16.70
2019-06-10T01:44:37.406Z,16.70
2019-06-10T01:49:43.571Z,16.70
2019-06-10T01:54:51.538Z,16.80
2019-06-10T01:59:56.616Z,16.80
2019-06-10T02:05:01.993Z,16.80
2019-06-10T02:10:13.823Z,16.70
2019-06-10T02:15:18.326Z,16.70
2019-06-10T02:20:24.017Z,16.70
2019-06-10T02:25:30.507Z,16.70
2019-06-10T02:30:44.298Z,16.70
2019-06-10T02:35:48.447Z,16.70
2019-06-10T02:40:48.474Z,16.60
2019-06-10T02:45:53.298Z,16.60
2019-06-10T02:51:03.470Z,16.50
2019-06-10T02:56:08.496Z,16.50
2019-06-10T03:01:16.353Z,16.50
2019-06-10T03:06:24.210Z,16.50
2019-06-10T03:11:30.563Z,16.50
2019-06-10T03:16:34.437Z,16.60
2019-06-10T03:21:39.395Z,16.70
2019-06-10T03:26:44.184Z,16.80
2019-06-10T03:31:49.138Z,16.90
2019-06-10T03:36:53.973Z,16.90
2019-06-10T03:41:58.788Z,17.00
2019-06-10T03:47:03.555Z,17.20
2019-06-10T03:52:08.396Z,17.30
2019-06-10T03:57:13.156Z,17.40
2019-06-10T04:02:19.314Z,17.40
2019-06-10T04:07:27.737Z,17.40
2019-06-10T04:12:32.754Z,17.40
2019-06-10T04:17:37.083Z,17.50
2019-06-10T04:22:44.327Z,17.70
2019-06-10T04:27:48.409Z,17.70
2019-06-10T04:32:53.250Z,17.80
2019-06-10T04:37:58.084Z,17.90
2019-06-10T04:43:03.042Z,18.00
2019-06-10T04:48:07.866Z,18.10
2019-06-10T04:53:12.967Z,18.20
2019-06-10T04:58:19.382Z,18.40
2019-06-10T05:03:26.549Z,18.70
2019-06-10T05:08:33.305Z,19.10
2019-06-10T05:13:37.360Z,19.40
2019-06-10T05:18:42.551Z,19.60
2019-06-10T05:23:47.668Z,19.80
2019-06-10T05:28:52.613Z,19.90
2019-06-10T05:33:57.420Z,20.00
2019-06-10T05:39:02.788Z,20.10
2019-06-10T05:44:07.620Z,20.20
2019-06-10T05:49:12.598Z,20.30
2019-06-10T05:54:17.479Z,20.40
2019-06-10T05:59:23.012Z,20.40
2019-06-10T06:04:29.950Z,20.50
2019-06-10T06:09:35.524Z,20.60
2019-06-10T06:14:42.447Z,20.70
2019-06-10T06:19:46.818Z,20.60
2019-06-10T06:24:52.290Z,20.60
2019-06-10T06:29:57.179Z,20.60
2019-06-10T06:35:02.241Z,20.70
2019-06-10T06:40:07.670Z,20.60
2019-06-10T06:45:12.813Z,20.60
2019-06-10T06:50:17.843Z,20.80
2019-06-10T06:55:23.366Z,21.00
2019-06-10T07:00:54.386Z,21.20
2019-06-10T07:05:43.324Z,21.40
2019-06-10T07:10:48.433Z,21.40
2019-06-10T07:15:53.577Z,21.50
2019-06-10T07:20:58.422Z,21.60
2019-06-10T07:26:03.378Z,21.80
2019-06-10T07:31:20.976Z,22.00
2019-06-10T07:36:14.594Z,22.20
2019-06-10T07:41:19.435Z,22.40
2019-06-10T07:46:24.206Z,22.70
2019-06-10T07:51:29.084Z,23.20
2019-06-10T07:56:39.802Z,24.00
2019-06-10T08:01:45.935Z,24.70
2019-06-10T08:06:49.742Z,24.90
2019-06-10T08:11:53.435Z,25.10
2019-06-10T08:16:58.183Z,25.70
2019-06-10T08:22:03.128Z,25.50
2019-06-10T08:27:08.060Z,25.90
2019-06-10T08:32:13.196Z,25.80
2019-06-10T08:37:18.151Z,25.90
2019-06-10T08:42:23.409Z,26.10
2019-06-10T08:47:28.302Z,26.40
2019-06-10T08:52:49.468Z,27.00
2019-06-10T08:57:42.324Z,27.10
2019-06-10T09:02:49.874Z,27.30
2019-06-10T09:07:54.503Z,27.70
2019-06-10T09:12:58.921Z,28.00
2019-06-10T09:18:03.749Z,28.10
2019-06-10T09:23:20.977Z,27.90
2019-06-10T09:28:15.017Z,27.90
2019-06-10T09:33:22.384Z,27.70
2019-06-10T09:38:26.400Z,27.60
2019-06-10T09:43:33.227Z,27.40
2019-06-10T09:48:38.298Z,27.80
2019-06-10T09:53:54.620Z,28.40
2019-06-10T09:58:51.136Z,28.70
2019-06-10T10:04:00.018Z,29.10
2019-06-10T10:09:04.064Z,29.30
2019-06-10T10:14:10.641Z,29.10
2019-06-10T10:19:15.393Z,29.30
2019-06-10T10:24:20.220Z,29.20
2019-06-10T10:29:25.069Z,28.80
2019-06-10T10:34:29.903Z,28.90
2019-06-10T10:39:37.620Z,29.20
2019-06-10T10:44:46.254Z,29.60
2019-06-10T10:49:49.114Z,29.40
2019-06-10T10:54:55.280Z,29.30
2019-06-10T11:00:02.936Z,29.60
2019-06-10T11:05:09.176Z,30.10
2019-06-10T11:10:14.051Z,30.30
2019-06-10T11:15:23.180Z,30.40
2019-06-10T11:20:28.067Z,30.10
2019-06-10T11:25:33.334Z,30.00
2019-06-10T11:30:38.399Z,30.40
2019-06-10T11:35:43.249Z,30.20
2019-06-10T11:40:49.834Z,30.70
2019-06-10T11:46:01.172Z,30.90
2019-06-10T11:51:04.236Z,30.80
2019-06-10T11:56:07.787Z,30.90
2019-06-10T12:01:13.419Z,31.00
2019-06-10T12:06:18.395Z,31.20
2019-06-10T12:11:23.243Z,31.30
2019-06-10T12:21:34.468Z,31.10
2019-06-10T12:26:39.311Z,31.00
2019-06-10T12:31:44.007Z,30.70
2019-06-10T12:36:48.783Z,31.00
2019-06-10T12:41:57.579Z,31.00
2019-06-10T12:47:05.252Z,30.70
2019-06-10T12:52:07.668Z,30.40
2019-06-10T12:57:15.570Z,30.50
2019-06-10T13:02:24.748Z,30.80
2019-06-10T13:07:25.643Z,30.90
2019-06-10T13:12:33.250Z,30.80
2019-06-10T13:17:37.279Z,30.50
2019-06-10T13:22:43.266Z,30.70
2019-06-10T13:27:48.588Z,30.70
2019-06-10T13:32:53.452Z,30.80
2019-06-10T13:37:59.051Z,31.00
2019-06-10T13:43:04.007Z,30.90
2019-06-10T13:48:11.546Z,30.80
2019-06-10T13:53:15.264Z,30.80
2019-06-10T13:58:22.879Z,30.80
2019-06-10T14:03:26.476Z,30.70
2019-06-10T14:08:32.451Z,30.50
2019-06-10T14:13:37.603Z,30.20
2019-06-10T14:18:44.169Z,30.00
2019-06-10T14:23:49.179Z,29.90
2019-06-10T14:28:54.405Z,29.90
2019-06-10T14:33:59.400Z,30.10
2019-06-10T14:39:06.117Z,30.00
2019-06-10T14:44:14.216Z,30.30
2019-06-10T14:49:17.494Z,30.30
2019-06-10T14:54:22.829Z,30.50
2019-06-10T14:59:27.727Z,31.10
2019-06-10T15:04:33.176Z,31.60
2019-06-10T15:09:38.206Z,31.50
2019-06-10T15:14:43.207Z,31.50
2019-06-10T15:19:47.998Z,31.40
2019-06-10T15:24:53.249Z,31.10
2019-06-10T15:29:58.160Z,31.10
2019-06-10T15:35:03.473Z,31.00
2019-06-10T15:40:09.043Z,30.70
2019-06-10T15:45:16.790Z,30.90
2019-06-10T15:50:22.846Z,30.90
2019-06-10T15:55:54.529Z,30.90
2019-06-10T16:00:34.141Z,30.90
2019-06-10T16:05:39.170Z,30.90
2019-06-10T16:10:44.019Z,30.60
2019-06-10T16:15:49.057Z,30.70
2019-06-10T16:20:53.813Z,30.70
2019-06-10T16:25:58.589Z,30.80
2019-06-10T16:31:03.416Z,30.80
2019-06-10T16:36:08.292Z,30.70
2019-06-10T16:41:13.061Z,30.60
2019-06-10T16:46:18.269Z,30.50
2019-06-10T16:51:23.706Z,30.40
2019-06-10T16:56:28.567Z,30.30
2019-06-10T17:01:33.387Z,30.30
2019-06-10T17:06:38.192Z,30.00
2019-06-10T17:11:43.024Z,29.70
2019-06-10T17:16:47.968Z,29.70
2019-06-10T17:21:52.898Z,29.60
2019-06-10T17:26:57.716Z,29.60
2019-06-10T17:32:02.887Z,29.50
2019-06-10T17:37:07.820Z,29.40
2019-06-10T17:42:12.688Z,29.20
2019-06-10T17:47:17.555Z,29.10
2019-06-10T17:52:22.443Z,28.90
2019-06-10T17:57:29.652Z,28.70
2019-06-10T18:02:38.542Z,28.60
2019-06-10T18:07:40.806Z,28.50
2019-06-10T18:12:45.654Z,28.40
2019-06-10T18:17:52.151Z,28.20
2019-06-10T18:22:57.003Z,28.10
2019-06-10T18:28:02.813Z,28.00
2019-06-10T18:33:07.981Z,27.90
2019-06-10T18:38:12.823Z,27.80
2019-06-10T18:43:18.313Z,27.80
2019-06-10T18:48:23.398Z,27.70
2019-06-10T18:53:28.432Z,27.60
2019-06-10T18:58:35.904Z,27.60
2019-06-10T19:03:39.795Z,27.50
2019-06-10T19:08:44.639Z,27.40
2019-06-10T19:13:49.484Z,27.40
2019-06-10T19:18:54.425Z,27.30
2019-06-10T19:23:59.501Z,27.30
2019-06-10T19:29:04.434Z,27.20
2019-06-10T19:34:13.073Z,27.00
2019-06-10T19:39:17.311Z,26.90
2019-06-10T19:44:23.439Z,26.90
2019-06-10T19:49:28.434Z,26.80
2019-06-10T19:54:33.539Z,26.70
2019-06-10T20:00:03.071Z,26.60
2019-06-10T20:04:46.063Z,26.50
2019-06-10T20:09:52.236Z,26.40
2019-06-10T20:14:57.167Z,26.20
2019-06-10T20:20:02.623Z,26.10
2019-06-10T20:25:07.703Z,25.90
2019-06-10T20:30:24.385Z,25.80
2019-06-10T20:35:20.027Z,25.60
2019-06-10T20:40:24.885Z,25.50
2019-06-10T20:45:29.851Z,25.40
2019-06-10T20:50:34.709Z,25.30
2019-06-10T20:55:46.728Z,25.30
2019-06-10T21:00:51.677Z,25.20
2019-06-10T21:05:53.478Z,25.10
2019-06-10T21:10:58.488Z,25.10
2019-06-10T21:16:03.971Z,24.90
2019-06-10T21:21:08.808Z,24.80
2019-06-10T21:26:13.704Z,24.70
2019-06-10T21:31:18.479Z,24.70
2019-06-10T21:36:23.371Z,24.60
2019-06-10T21:41:28.204Z,24.50
2019-06-10T21:46:33.076Z,24.40
2019-06-10T21:51:38.003Z,24.30
2019-06-10T21:56:43.157Z,24.30
2019-06-10T22:01:49.197Z,24.20
2019-06-10T22:06:56.000Z,24.20
2019-06-10T22:12:02.717Z,24.30
2019-06-10T22:17:07.338Z,24.40
2019-06-10T22:22:12.965Z,24.30
2019-06-10T22:27:17.938Z,24.30
2019-06-10T22:32:22.831Z,24.30
2019-06-10T22:37:27.671Z,24.20
2019-06-10T22:42:32.831Z,24.10
2019-06-10T22:47:37.696Z,24.10
2019-06-10T22:52:42.689Z,24.10
2019-06-10T22:57:48.603Z,24.00
2019-06-10T23:02:55.794Z,24.00
2019-06-10T23:08:02.288Z,24.20
2019-06-10T23:13:06.215Z,24.20
2019-06-10T23:18:12.722Z,24.10
2019-06-10T23:23:17.750Z,24.20
2019-06-10T23:28:22.432Z,24.20
2019-06-10T23:33:27.269Z,24.10
2019-06-10T23:38:32.903Z,24.10
2019-06-10T23:43:37.865Z,24.10
2019-06-10T23:48:43.101Z,24.20
2019-06-10T23:53:48.055Z,24.20
2019-06-10T23:58:54.387Z,24.10
